createdAt,value
2023-01-17T00:00:01.732Z,47.10
2023-01-17T00:05:23.972Z,40.43
2023-01-17T00:10:28.276Z,39.80
2023-01-17T00:15:31.718Z,36.87
2023-01-17T00:20:53.517Z,36.07
2023-01-17T00:26:05.423Z,35.30
2023-01-17T00:31:10.135Z,32.03
2023-01-17T00:36:13.392Z,31.53
2023-01-17T00:41:16.412Z,33.93
2023-01-17T00:46:38.292Z,32.97
2023-01-17T00:51:59.835Z,33.30
2023-01-17T00:57:21.824Z,34.47
2023-01-17T01:02:44.212Z,29.13
2023-01-17T01:08:05.856Z,31.53
2023-01-17T01:13:27.287Z,28.67
2023-01-17T01:18:48.905Z,30.47
2023-01-17T01:24:10.285Z,31.80
2023-01-17T01:29:31.391Z,30.60
2023-01-17T01:34:34.402Z,30.77
2023-01-17T01:39:37.278Z,31.23
2023-01-17T01:44:52.370Z,31.57
2023-01-17T01:49:55.654Z,28.70
2023-01-17T01:55:02.417Z,29.13
2023-01-17T02:00:11.903Z,28.50
2023-01-17T02:05:15.461Z,31.00
2023-01-17T02:10:18.847Z,23.53
2023-01-17T02:15:27.553Z,27.17
2023-01-17T02:20:33.311Z,24.67
2023-01-17T02:25:57.495Z,26.63
2023-01-17T02:31:08.291Z,25.00
2023-01-17T02:36:30.900Z,29.40
2023-01-17T02:41:41.248Z,23.50
2023-01-17T02:46:47.126Z,24.17
2023-01-17T02:51:59.781Z,25.33
2023-01-17T02:57:30.561Z,28.57
2023-01-17T03:03:12.272Z,24.43
2023-01-17T03:08:15.866Z,20.90
2023-01-17T03:13:18.898Z,26.00
2023-01-17T03:18:22.053Z,23.17
2023-01-17T03:23:25.109Z,25.60
2023-01-17T03:28:28.084Z,24.07
2023-01-17T03:33:30.964Z,24.20
2023-01-17T03:38:34.032Z,22.17
2023-01-17T03:43:37.041Z,25.13
2023-01-17T03:48:41.273Z,24.53
2023-01-17T03:53:45.064Z,23.10
2023-01-17T03:58:48.044Z,21.23
2023-01-17T04:03:51.000Z,20.13
2023-01-17T04:08:53.928Z,22.43
2023-01-17T04:13:57.162Z,22.03
2023-01-17T04:19:00.163Z,24.03
2023-01-17T04:24:03.102Z,20.43
2023-01-17T04:29:06.149Z,19.77
2023-01-17T04:34:09.200Z,19.87
2023-01-17T04:39:14.957Z,20.80
2023-01-17T04:44:18.342Z,20.80
2023-01-17T04:49:21.672Z,20.83
2023-01-17T04:54:24.630Z,19.17
2023-01-17T04:59:27.737Z,19.73
2023-01-17T05:04:30.852Z,17.97
2023-01-17T05:09:34.048Z,20.27
2023-01-17T05:14:37.132Z,19.43
2023-01-17T05:19:40.249Z,21.47
2023-01-17T05:24:44.658Z,22.23
2023-01-17T05:29:47.777Z,19.53
2023-01-17T05:34:51.406Z,20.00
2023-01-17T05:39:54.557Z,20.40
2023-01-17T05:44:57.526Z,17.23
2023-01-17T05:50:00.611Z,15.83
2023-01-17T05:55:04.327Z,17.83
2023-01-17T06:00:08.389Z,17.33
2023-01-17T06:05:11.786Z,18.43
2023-01-17T06:10:16.286Z,20.93
2023-01-17T06:15:19.420Z,22.53
2023-01-17T06:20:22.718Z,17.00
2023-01-17T06:25:25.681Z,17.30
2023-01-17T06:30:29.221Z,15.83
2023-01-17T06:35:32.543Z,17.73
2023-01-17T06:40:35.528Z,18.87
2023-01-17T06:45:38.734Z,17.10
2023-01-17T06:50:41.823Z,18.70
2023-01-17T06:55:44.867Z,19.07
2023-01-17T07:00:48.217Z,20.13
2023-01-17T07:05:51.884Z,19.23
2023-01-17T07:11:02.456Z,22.20
2023-01-17T07:16:06.503Z,20.83
2023-01-17T07:21:16.202Z,21.57
2023-01-17T07:26:19.676Z,22.70
2023-01-17T07:31:22.624Z,25.57
2023-01-17T07:36:25.651Z,22.10
2023-01-17T07:41:31.880Z,24.33
2023-01-17T07:46:41.001Z,25.23
2023-01-17T07:51:44.677Z,25.33
2023-01-17T07:56:47.972Z,24.63
2023-01-17T08:01:51.149Z,27.37
2023-01-17T08:06:55.305Z,28.57
2023-01-17T08:11:58.323Z,32.00
2023-01-17T08:17:12.318Z,33.37
2023-01-17T08:22:15.487Z,33.80
2023-01-17T08:27:18.459Z,34.77
2023-01-17T08:32:21.864Z,33.83
2023-01-17T08:37:24.965Z,35.67
2023-01-17T08:42:28.099Z,33.70
2023-01-17T08:47:32.156Z,33.00
2023-01-17T08:52:35.298Z,32.20
2023-01-17T08:57:38.427Z,32.87
2023-01-17T09:02:41.554Z,33.83
2023-01-17T09:07:44.815Z,36.30
2023-01-17T09:12:47.960Z,42.10
2023-01-17T09:17:51.230Z,35.17
2023-01-17T09:22:54.516Z,34.03
2023-01-17T09:27:57.575Z,34.93
2023-01-17T09:33:01.237Z,37.80
2023-01-17T09:38:04.523Z,33.00
2023-01-17T09:43:19.435Z,33.00
2023-01-17T09:48:32.055Z,38.20
2023-01-17T09:53:37.757Z,35.93
2023-01-17T09:59:05.915Z,54.73
2023-01-17T10:04:18.859Z,38.57
2023-01-17T10:09:34.318Z,32.20
2023-01-17T10:14:37.485Z,33.27
2023-01-17T10:19:46.289Z,29.37
2023-01-17T10:25:20.429Z,38.47
2023-01-17T10:30:28.381Z,35.23
2023-01-17T10:35:34.934Z,42.37
2023-01-17T10:40:50.635Z,34.30
2023-01-17T10:45:55.788Z,34.93
2023-01-17T10:51:26.808Z,42.70
2023-01-17T10:56:30.376Z,34.60
2023-01-17T11:01:33.564Z,38.83
2023-01-17T11:06:53.178Z,36.83
2023-01-17T11:12:00.727Z,33.20
2023-01-17T11:17:05.613Z,32.07
2023-01-17T11:22:14.200Z,29.50
2023-01-17T11:27:25.744Z,28.80
2023-01-17T11:32:33.676Z,42.40
2023-01-17T11:37:37.250Z,42.30
2023-01-17T11:42:40.394Z,32.30
2023-01-17T11:47:43.379Z,34.73
2023-01-17T11:52:46.456Z,37.47
2023-01-17T11:57:50.913Z,30.97
2023-01-17T12:02:56.499Z,27.00
2023-01-17T12:08:21.035Z,24.03
2023-01-17T12:14:00.661Z,24.43
2023-01-17T12:19:43.540Z,26.23
2023-01-17T12:25:12.189Z,23.30
2023-01-17T12:30:24.514Z,23.07
2023-01-17T12:35:44.745Z,24.87
2023-01-17T12:41:03.024Z,27.13
2023-01-17T12:46:13.997Z,24.67
2023-01-17T12:51:24.515Z,24.60
2023-01-17T12:56:36.045Z,21.47
2023-01-17T13:01:43.456Z,24.03
2023-01-17T13:06:52.508Z,19.77
2023-01-17T13:12:00.336Z,24.97
2023-01-17T13:17:34.596Z,21.67
2023-01-17T13:22:39.315Z,17.50
2023-01-17T13:28:06.445Z,29.93
2023-01-17T13:33:22.006Z,23.63
2023-01-17T13:38:34.578Z,19.57
2023-01-17T13:43:40.167Z,16.83
2023-01-17T13:48:43.088Z,15.70
2023-01-17T13:53:47.391Z,19.00
2023-01-17T13:58:58.586Z,16.47
2023-01-17T14:04:04.729Z,19.20
2023-01-17T14:09:22.586Z,14.13
2023-01-17T14:14:42.165Z,14.00
2023-01-17T14:19:48.349Z,17.27
2023-01-17T14:25:12.500Z,17.30
2023-01-17T14:30:27.850Z,21.07
2023-01-17T14:35:34.434Z,15.90
2023-01-17T14:40:38.966Z,23.03
2023-01-17T14:45:42.483Z,124.27
2023-01-17T14:50:47.982Z,18.70
2023-01-17T14:55:53.417Z,18.07
2023-01-17T15:00:59.506Z,17.13
2023-01-17T15:06:11.487Z,15.07
2023-01-17T15:11:21.307Z,15.03
2023-01-17T15:16:34.214Z,12.80
2023-01-17T15:21:40.784Z,13.03
2023-01-17T15:26:44.193Z,32.43
2023-01-17T15:31:51.916Z,13.07
2023-01-17T15:36:58.236Z,14.87
2023-01-17T15:42:04.302Z,11.33
2023-01-17T15:47:35.741Z,10.53
2023-01-17T15:52:51.345Z,10.93
2023-01-17T15:57:55.023Z,10.87
2023-01-17T16:03:00.105Z,12.23
2023-01-17T16:08:03.890Z,12.60
2023-01-17T16:13:09.272Z,14.67
2023-01-17T16:18:18.223Z,16.30
2023-01-17T16:23:21.591Z,14.60
2023-01-17T16:28:24.839Z,14.30
2023-01-17T16:33:27.780Z,12.97
2023-01-17T16:38:32.547Z,15.60
2023-01-17T16:43:36.479Z,15.80
2023-01-17T16:48:39.797Z,14.37
2023-01-17T16:53:43.216Z,18.10
2023-01-17T16:58:46.293Z,22.50
2023-01-17T17:03:49.603Z,13.83
2023-01-17T17:08:52.543Z,16.37
2023-01-17T17:13:55.804Z,42.83
2023-01-17T17:19:05.000Z,19.70
2023-01-17T17:24:10.953Z,15.43
2023-01-17T17:29:14.669Z,13.93
2023-01-17T17:34:17.910Z,11.43
2023-01-17T17:39:20.896Z,12.10
2023-01-17T17:44:24.422Z,11.37
2023-01-17T17:49:27.589Z,13.77
2023-01-17T17:54:30.841Z,11.33
2023-01-17T17:59:34.205Z,12.37
2023-01-17T18:04:37.889Z,41.57
2023-01-17T18:09:41.062Z,36.97
2023-01-17T18:14:47.083Z,25.27
2023-01-17T18:19:50.342Z,16.37
2023-01-17T18:24:53.737Z,12.17
2023-01-17T18:29:56.861Z,20.20
2023-01-17T18:35:01.961Z,16.37
2023-01-17T18:40:05.333Z,7.67
2023-01-17T18:45:08.812Z,7.23
2023-01-17T18:50:11.830Z,7.80
2023-01-17T18:55:15.833Z,5.93
2023-01-17T19:00:20.073Z,10.50
2023-01-17T19:05:24.764Z,9.13
2023-01-17T19:10:27.918Z,13.73
2023-01-17T19:15:31.631Z,10.00
2023-01-17T19:20:35.661Z,9.17
2023-01-17T19:25:38.943Z,20.60
2023-01-17T19:30:42.627Z,10.37
2023-01-17T19:35:45.549Z,10.63
2023-01-17T19:40:48.685Z,8.97
2023-01-17T19:45:57.273Z,14.23
2023-01-17T19:51:08.998Z,11.60
2023-01-17T19:56:20.428Z,16.47
2023-01-17T20:01:27.592Z,20.90
2023-01-17T20:06:34.058Z,14.23
2023-01-17T20:11:37.194Z,8.23
2023-01-17T20:16:40.154Z,5.93
2023-01-17T20:21:43.311Z,10.40
2023-01-17T20:26:46.911Z,7.83
2023-01-17T20:31:52.795Z,12.43
2023-01-17T20:36:58.260Z,22.20
2023-01-17T20:42:01.457Z,19.27
2023-01-17T20:47:04.434Z,20.40
2023-01-17T20:52:07.327Z,22.23
2023-01-17T20:57:10.246Z,10.00
2023-01-17T21:02:13.309Z,7.87
2023-01-17T21:07:16.642Z,8.47
2023-01-17T21:12:21.700Z,9.03
2023-01-17T21:17:24.686Z,8.00
2023-01-17T21:22:29.014Z,11.13
2023-01-17T21:27:32.179Z,8.73
2023-01-17T21:32:35.483Z,7.73
2023-01-17T21:37:38.908Z,11.73
2023-01-17T21:42:41.876Z,13.23
2023-01-17T21:47:45.087Z,12.27
2023-01-17T21:52:48.276Z,8.93
2023-01-17T21:58:09.827Z,11.63
2023-01-17T22:03:12.968Z,9.07
2023-01-17T22:08:15.821Z,10.37
2023-01-17T22:13:19.081Z,8.63
2023-01-17T22:18:22.003Z,9.33
2023-01-17T22:23:25.087Z,7.93
2023-01-17T22:28:30.658Z,9.27
2023-01-17T22:33:33.747Z,11.23
2023-01-17T22:38:36.738Z,10.23
2023-01-17T22:43:42.133Z,11.10
2023-01-17T22:48:45.753Z,10.43
2023-01-17T22:53:51.031Z,7.93
2023-01-17T22:58:54.039Z,8.97
2023-01-17T23:04:01.877Z,8.97
2023-01-17T23:09:08.618Z,15.97
2023-01-17T23:14:20.917Z,11.23
2023-01-17T23:19:25.102Z,12.07
2023-01-17T23:24:28.188Z,13.80
2023-01-17T23:29:31.805Z,12.47
2023-01-17T23:34:35.004Z,12.87
2023-01-17T23:39:38.166Z,10.97
2023-01-17T23:44:41.123Z,12.10
2023-01-17T23:49:48.508Z,12.97
2023-01-17T23:54:51.783Z,12.77
2023-01-17T23:59:54.948Z,21.70
